createdAt,value
2023-03-20T00:00:52.190Z,3.70
2023-03-20T00:03:21.709Z,3.80
2023-03-20T00:05:52.252Z,2.88
2023-03-20T00:08:20.241Z,5.10
2023-03-20T00:10:51.060Z,2.83
2023-03-20T00:13:26.222Z,4.45
2023-03-20T00:15:56.889Z,2.65
2023-03-20T00:18:26.932Z,4.97
2023-03-20T00:20:54.222Z,4.75
2023-03-20T00:23:22.043Z,5.97
2023-03-20T00:25:49.269Z,3.00
2023-03-20T00:28:46.495Z,5.00
2023-03-20T00:31:26.866Z,4.63
2023-03-20T00:33:56.470Z,4.70
2023-03-20T00:36:24.274Z,4.75
2023-03-20T00:38:54.855Z,6.90
2023-03-20T00:41:24.278Z,2.58
2023-03-20T00:43:58.497Z,2.88
2023-03-20T00:46:31.455Z,4.97
2023-03-20T00:48:58.726Z,3.63
2023-03-20T00:51:26.110Z,2.58
2023-03-20T00:53:53.659Z,4.50
2023-03-20T00:56:42.820Z,3.17
2023-03-20T00:59:17.400Z,3.38
2023-03-20T01:01:46.498Z,4.40
2023-03-20T01:04:19.912Z,2.67
2023-03-20T01:06:52.995Z,5.32
2023-03-20T01:09:22.836Z,9.02
2023-03-20T01:11:51.097Z,2.42
2023-03-20T01:14:23.675Z,3.90
2023-03-20T01:16:51.011Z,3.67
2023-03-20T01:19:18.222Z,3.00
2023-03-20T01:21:54.996Z,5.38
2023-03-20T01:24:24.985Z,3.28
2023-03-20T01:26:55.197Z,4.57
2023-03-20T01:29:27.972Z,6.82
2023-03-20T01:31:57.753Z,9.63
2023-03-20T01:34:28.275Z,6.93
2023-03-20T01:36:59.511Z,7.03
2023-03-20T01:39:36.280Z,5.80
2023-03-20T01:42:06.172Z,7.22
2023-03-20T01:44:36.702Z,7.65
2023-03-20T01:47:16.120Z,7.20
2023-03-20T01:50:24.394Z,11.77
2023-03-20T01:53:17.460Z,5.35
2023-03-20T01:55:56.597Z,5.40
2023-03-20T01:58:36.372Z,6.97
2023-03-20T02:01:06.609Z,7.07
2023-03-20T02:03:34.875Z,5.20
2023-03-20T02:06:06.839Z,7.10
2023-03-20T02:08:54.186Z,12.85
2023-03-20T02:11:25.719Z,13.40
2023-03-20T02:13:56.178Z,9.88
2023-03-20T02:16:28.797Z,9.68
2023-03-20T02:19:19.311Z,8.87
2023-03-20T02:22:07.914Z,10.38
2023-03-20T02:24:54.687Z,7.40
2023-03-20T02:27:47.621Z,8.00
2023-03-20T02:30:37.073Z,11.75
2023-03-20T02:33:22.911Z,7.95
2023-03-20T02:36:29.137Z,17.15
2023-03-20T02:39:11.923Z,9.50
2023-03-20T02:41:42.053Z,9.98
2023-03-20T02:44:12.756Z,7.72
2023-03-20T02:46:54.430Z,10.70
2023-03-20T02:49:46.583Z,9.52
2023-03-20T02:52:24.523Z,7.75
2023-03-20T02:54:55.030Z,12.98
2023-03-20T02:57:28.093Z,9.05
2023-03-20T03:00:27.106Z,9.90
2023-03-20T03:03:18.881Z,12.23
2023-03-20T03:06:39.108Z,7.30
2023-03-20T03:09:17.679Z,13.77
2023-03-20T03:12:01.359Z,9.13
2023-03-20T03:14:29.866Z,9.65
2023-03-20T03:17:00.487Z,6.93
2023-03-20T03:19:29.756Z,9.57
2023-03-20T03:21:57.115Z,14.07
2023-03-20T03:24:44.457Z,8.23
2023-03-20T03:27:39.651Z,10.00
2023-03-20T03:30:28.300Z,7.22
2023-03-20T03:33:19.638Z,5.97
2023-03-20T03:35:50.095Z,9.80
2023-03-20T03:39:05.547Z,6.60
2023-03-20T03:41:43.059Z,4.82
2023-03-20T03:44:15.598Z,8.93
2023-03-20T03:49:29.512Z,5.30
2023-03-20T03:52:03.894Z,5.82
2023-03-20T03:54:43.922Z,8.38
2023-03-20T03:57:54.389Z,9.93
2023-03-20T04:00:25.520Z,7.22
2023-03-20T04:02:56.321Z,10.25
2023-03-20T04:05:27.056Z,7.45
2023-03-20T04:07:56.438Z,12.88
2023-03-20T04:10:24.084Z,7.72
2023-03-20T04:12:51.344Z,10.18
2023-03-20T04:15:20.540Z,12.40
2023-03-20T04:17:48.468Z,9.50
2023-03-20T04:20:17.612Z,10.00
2023-03-20T04:22:46.941Z,9.02
2023-03-20T04:25:20.640Z,8.45
2023-03-20T04:27:49.695Z,10.07
2023-03-20T04:30:39.666Z,7.22
2023-03-20T04:33:34.898Z,9.48
2023-03-20T04:36:21.721Z,6.22
2023-03-20T04:38:54.604Z,10.25
2023-03-20T04:41:23.708Z,5.63
2023-03-20T04:43:54.671Z,7.45
2023-03-20T04:46:23.668Z,3.38
2023-03-20T04:48:54.382Z,6.60
2023-03-20T04:51:22.301Z,5.43
2023-03-20T04:53:51.387Z,9.57
2023-03-20T04:56:19.335Z,5.93
2023-03-20T04:58:50.858Z,7.68
2023-03-20T05:01:20.997Z,6.47
2023-03-20T05:03:48.459Z,4.15
2023-03-20T05:06:21.220Z,8.85
2023-03-20T05:08:54.655Z,3.33
2023-03-20T05:11:22.275Z,8.80
2023-03-20T05:13:56.551Z,8.70
2023-03-20T05:16:45.023Z,5.38
2023-03-20T05:19:31.290Z,5.85
2023-03-20T05:22:19.432Z,9.90
2023-03-20T05:25:22.409Z,7.78
2023-03-20T05:28:22.912Z,12.65
2023-03-20T05:31:10.357Z,7.70
2023-03-20T05:33:56.313Z,7.38
2023-03-20T05:36:49.517Z,5.82
2023-03-20T05:39:28.486Z,10.82
2023-03-20T05:42:34.129Z,6.47
2023-03-20T05:45:36.676Z,8.25
2023-03-20T05:48:30.121Z,5.00
2023-03-20T05:51:23.158Z,12.90
2023-03-20T05:54:10.611Z,7.70
2023-03-20T05:56:59.032Z,7.97
2023-03-20T05:59:46.765Z,7.15
2023-03-20T06:02:32.501Z,9.13
2023-03-20T06:05:12.266Z,8.73
2023-03-20T06:07:50.562Z,8.00
2023-03-20T06:10:20.901Z,8.98
2023-03-20T06:12:50.368Z,10.25
2023-03-20T06:15:19.821Z,10.43
2023-03-20T06:17:55.888Z,7.63
2023-03-20T06:20:24.740Z,5.55
2023-03-20T06:22:53.098Z,16.23
2023-03-20T06:25:24.145Z,16.95
2023-03-20T06:27:54.738Z,11.07
2023-03-20T06:30:25.460Z,17.65
2023-03-20T06:32:56.936Z,16.48
2023-03-20T06:35:35.002Z,15.43
2023-03-20T06:38:02.995Z,39.28
2023-03-20T06:40:32.181Z,15.05
2023-03-20T06:43:00.442Z,16.50
2023-03-20T06:45:41.534Z,16.73
2023-03-20T06:48:24.184Z,15.88
2023-03-20T06:50:53.187Z,11.40
2023-03-20T06:53:23.018Z,12.10
2023-03-20T06:56:05.312Z,8.90
2023-03-20T06:58:35.124Z,11.38
2023-03-20T07:01:03.402Z,17.08
2023-03-20T07:03:30.768Z,16.10
2023-03-20T07:05:59.149Z,12.32
2023-03-20T07:08:29.461Z,15.57
2023-03-20T07:11:00.755Z,14.27
2023-03-20T07:13:29.664Z,9.73
2023-03-20T07:16:04.829Z,18.15
2023-03-20T07:18:38.291Z,12.05
2023-03-20T07:21:08.367Z,20.02
2023-03-20T07:23:36.682Z,15.93
2023-03-20T07:26:05.632Z,14.73
2023-03-20T07:28:34.175Z,18.73
2023-03-20T07:31:30.076Z,14.35
2023-03-20T07:34:08.289Z,18.60
2023-03-20T07:36:35.938Z,12.75
2023-03-20T07:39:11.530Z,16.80
2023-03-20T07:41:41.585Z,16.10
2023-03-20T07:44:11.140Z,22.52
2023-03-20T07:46:54.392Z,15.73
2023-03-20T07:49:23.784Z,18.35
2023-03-20T07:51:51.536Z,15.43
2023-03-20T07:54:19.398Z,15.77
2023-03-20T07:56:53.605Z,12.43
2023-03-20T07:59:20.966Z,19.40
2023-03-20T08:01:51.006Z,24.35
2023-03-20T08:04:22.216Z,10.27
2023-03-20T08:06:50.927Z,15.98
2023-03-20T08:09:19.212Z,17.15
2023-03-20T08:11:46.318Z,9.65
2023-03-20T08:14:13.692Z,11.20
2023-03-20T08:16:41.043Z,7.15
2023-03-20T08:19:08.666Z,9.00
2023-03-20T08:21:36.187Z,9.95
2023-03-20T08:24:04.385Z,9.38
2023-03-20T08:26:34.692Z,19.80
2023-03-20T08:29:01.824Z,13.32
2023-03-20T08:31:29.064Z,18.95
2023-03-20T08:33:57.182Z,27.65
2023-03-20T08:36:24.804Z,16.85
2023-03-20T08:38:52.137Z,12.50
2023-03-20T08:41:22.712Z,15.85
2023-03-20T08:43:52.233Z,14.43
2023-03-20T08:46:19.542Z,19.98
2023-03-20T08:48:46.634Z,22.60
2023-03-20T08:51:16.996Z,10.73
2023-03-20T08:53:44.305Z,10.35
2023-03-20T08:56:12.274Z,5.90
2023-03-20T08:58:39.417Z,7.28
2023-03-20T09:01:08.703Z,6.43
2023-03-20T09:03:36.947Z,6.00
2023-03-20T09:06:11.310Z,11.18
2023-03-20T09:08:38.956Z,5.95
2023-03-20T09:11:07.350Z,8.35
2023-03-20T09:13:37.841Z,8.15
2023-03-20T09:16:07.932Z,3.60
2023-03-20T09:18:35.055Z,4.93
2023-03-20T09:21:04.526Z,7.07
2023-03-20T09:23:32.409Z,4.40
2023-03-20T09:25:59.685Z,10.95
2023-03-20T09:28:27.491Z,5.57
2023-03-20T09:30:59.277Z,8.98
2023-03-20T09:33:27.160Z,9.27
2023-03-20T09:35:54.724Z,14.95
2023-03-20T09:38:27.919Z,16.30
2023-03-20T09:41:27.562Z,11.95
2023-03-20T09:44:03.935Z,13.52
2023-03-20T09:47:19.476Z,10.60
2023-03-20T09:50:26.123Z,20.75
2023-03-20T09:53:27.908Z,11.30
2023-03-20T09:55:56.730Z,14.60
2023-03-20T09:58:32.525Z,16.67
2023-03-20T10:01:04.910Z,10.98
2023-03-20T10:03:49.824Z,14.32
2023-03-20T10:06:18.164Z,17.23
2023-03-20T10:08:46.474Z,21.27
2023-03-20T10:11:24.747Z,26.10
2023-03-20T10:13:57.993Z,16.60
2023-03-20T10:17:09.486Z,10.00
2023-03-20T10:19:59.242Z,18.27
2023-03-20T10:22:46.255Z,11.90
2023-03-20T10:25:30.751Z,12.65
2023-03-20T10:28:20.418Z,11.35
2023-03-20T10:31:26.099Z,15.23
2023-03-20T10:34:15.013Z,14.13
2023-03-20T10:36:54.361Z,11.20
2023-03-20T10:39:34.298Z,13.80
2023-03-20T10:42:05.167Z,14.50
2023-03-20T10:44:39.470Z,14.75
2023-03-20T10:47:13.297Z,11.70
2023-03-20T10:49:47.847Z,13.80
2023-03-20T10:52:31.349Z,21.38
2023-03-20T10:55:08.784Z,20.25
2023-03-20T10:57:42.483Z,10.43
2023-03-20T11:00:28.233Z,13.52
2023-03-20T11:02:57.829Z,14.27
2023-03-20T11:05:38.465Z,10.73
2023-03-20T11:08:14.186Z,14.98
2023-03-20T11:10:51.403Z,20.00
2023-03-20T11:13:46.439Z,15.40
2023-03-20T11:16:35.557Z,13.77
2023-03-20T11:19:09.128Z,13.43
2023-03-20T11:21:51.101Z,12.95
2023-03-20T11:25:00.465Z,12.05
2023-03-20T11:27:38.440Z,15.48
2023-03-20T11:30:27.688Z,13.57
2023-03-20T11:33:03.863Z,14.10
2023-03-20T11:35:34.803Z,13.60
2023-03-20T11:38:18.677Z,16.13
2023-03-20T11:40:52.585Z,15.60
2023-03-20T11:43:22.944Z,12.90
2023-03-20T11:46:02.891Z,16.00
2023-03-20T11:48:42.350Z,19.50
2023-03-20T11:51:15.106Z,16.42
2023-03-20T11:53:48.450Z,19.95
2023-03-20T11:59:35.228Z,21.52
2023-03-20T12:02:44.255Z,18.25
2023-03-20T12:05:40.112Z,11.23
2023-03-20T12:08:18.913Z,19.20
2023-03-20T12:11:01.806Z,20.23
2023-03-20T12:13:40.618Z,13.05
2023-03-20T12:16:31.152Z,16.00
2023-03-20T12:19:19.680Z,13.25
2023-03-20T12:22:45.441Z,15.83
2023-03-20T12:25:31.291Z,15.27
2023-03-20T12:28:11.184Z,11.80
2023-03-20T12:30:56.756Z,11.10
2023-03-20T12:33:57.722Z,9.60
2023-03-20T12:36:44.275Z,7.90
2023-03-20T12:39:51.125Z,15.32
2023-03-20T12:42:41.201Z,9.05
2023-03-20T12:45:21.105Z,11.93
2023-03-20T12:48:26.233Z,13.80
2023-03-20T12:51:20.760Z,10.85
2023-03-20T12:54:22.637Z,9.80
2023-03-20T12:57:22.935Z,17.13
2023-03-20T13:00:08.664Z,10.27
2023-03-20T13:03:12.163Z,14.88
2023-03-20T13:06:22.977Z,9.05
2023-03-20T13:12:27.956Z,12.85
2023-03-20T13:15:23.154Z,8.40
2023-03-20T13:18:44.632Z,5.47
2023-03-20T13:21:27.477Z,10.90
2023-03-20T13:24:30.157Z,8.50
2023-03-20T13:27:33.546Z,7.10
2023-03-20T13:30:14.076Z,7.65
2023-03-20T13:33:19.600Z,18.85
2023-03-20T13:36:24.569Z,9.48
2023-03-20T13:39:20.966Z,7.93
2023-03-20T13:42:01.728Z,8.98
2023-03-20T13:44:35.172Z,13.85
2023-03-20T13:49:59.072Z,7.78
2023-03-20T13:52:45.389Z,7.50
2023-03-20T13:55:27.926Z,12.38
2023-03-20T13:58:39.689Z,6.20
2023-03-20T14:01:38.620Z,7.15
2023-03-20T14:04:32.400Z,7.63
2023-03-20T14:07:38.212Z,8.10
2023-03-20T14:10:45.417Z,5.85
2023-03-20T14:13:20.824Z,3.50
2023-03-20T14:16:05.639Z,7.93
2023-03-20T14:19:04.278Z,7.53
2023-03-20T14:21:37.027Z,6.70
2023-03-20T14:24:33.415Z,9.05
2023-03-20T14:27:36.711Z,7.13
2023-03-20T14:31:10.627Z,4.40
2023-03-20T14:34:13.403Z,7.85
2023-03-20T14:37:31.640Z,3.95
2023-03-20T14:40:21.122Z,10.05
2023-03-20T14:42:55.655Z,6.15
2023-03-20T14:45:51.708Z,7.95
2023-03-20T14:48:46.551Z,4.50
2023-03-20T14:51:48.457Z,4.30
2023-03-20T14:54:27.771Z,5.93
2023-03-20T14:57:27.425Z,5.63
2023-03-20T15:00:00.463Z,6.40
2023-03-20T15:02:37.109Z,4.97
2023-03-20T15:05:46.801Z,8.80
2023-03-20T15:08:30.595Z,3.70
2023-03-20T15:13:34.462Z,6.50
2023-03-20T15:16:09.525Z,7.55
2023-03-20T15:18:53.734Z,3.42
2023-03-20T15:21:48.747Z,6.32
2023-03-20T15:24:33.229Z,4.90
2023-03-20T15:27:14.075Z,6.45
2023-03-20T15:29:53.004Z,3.28
2023-03-20T15:32:36.972Z,6.47
2023-03-20T15:35:21.501Z,11.25
2023-03-20T15:37:56.429Z,4.28
2023-03-20T15:40:47.725Z,9.30
2023-03-20T15:43:38.454Z,6.50
2023-03-20T15:46:25.766Z,5.40
2023-03-20T15:49:00.512Z,6.82
2023-03-20T15:51:39.342Z,4.53
2023-03-20T15:54:08.261Z,7.05
2023-03-20T15:56:36.386Z,19.02
2023-03-20T15:59:05.689Z,8.50
2023-03-20T16:01:37.174Z,2.78
2023-03-20T16:04:04.764Z,8.75
2023-03-20T16:06:49.289Z,9.82
2023-03-20T16:09:17.867Z,5.30
2023-03-20T16:11:51.446Z,2.58
2023-03-20T16:14:34.748Z,3.13
2023-03-20T16:17:06.331Z,4.85
2023-03-20T16:19:34.233Z,15.40
2023-03-20T16:22:32.736Z,4.57
2023-03-20T16:25:02.323Z,9.15
2023-03-20T16:27:35.146Z,2.55
2023-03-20T16:30:25.377Z,7.45
2023-03-20T16:33:09.155Z,5.97
2023-03-20T16:38:41.021Z,11.27
2023-03-20T16:41:38.224Z,7.15
2023-03-20T16:44:36.609Z,4.72
2023-03-20T16:47:13.869Z,4.13
2023-03-20T16:49:47.239Z,10.85
2023-03-20T16:52:19.745Z,6.97
2023-03-20T16:54:55.618Z,12.10
2023-03-20T16:57:25.591Z,3.58
2023-03-20T17:00:21.368Z,6.40
2023-03-20T17:03:14.647Z,5.05
2023-03-20T17:06:17.333Z,7.22
2023-03-20T17:08:57.054Z,7.03
2023-03-20T17:11:39.980Z,7.88
2023-03-20T17:14:09.869Z,10.23
2023-03-20T17:16:44.623Z,8.45
2023-03-20T17:19:22.463Z,9.75
2023-03-20T17:21:57.479Z,4.05
2023-03-20T17:24:28.158Z,5.63
2023-03-20T17:27:05.655Z,9.50
2023-03-20T17:29:37.353Z,9.32
2023-03-20T17:32:29.199Z,5.03
2023-03-20T17:35:00.472Z,6.22
2023-03-20T17:37:38.662Z,6.80
2023-03-20T17:40:23.002Z,10.45
2023-03-20T17:42:54.378Z,12.95
2023-03-20T17:45:33.806Z,4.15
2023-03-20T17:48:33.876Z,6.40
2023-03-20T17:51:11.363Z,4.20
2023-03-20T17:53:38.654Z,8.27
2023-03-20T17:56:16.157Z,7.82
2023-03-20T17:58:49.253Z,7.70
2023-03-20T18:01:19.355Z,7.53
2023-03-20T18:03:47.762Z,5.68
2023-03-20T18:06:33.967Z,4.15
2023-03-20T18:09:02.111Z,5.53
2023-03-20T18:11:44.386Z,8.40
2023-03-20T18:14:12.534Z,6.32
2023-03-20T18:16:51.493Z,9.18
2023-03-20T18:19:30.879Z,4.95
2023-03-20T18:21:58.949Z,5.00
2023-03-20T18:24:27.483Z,8.55
2023-03-20T18:26:55.613Z,5.70
2023-03-20T18:29:25.989Z,4.90
2023-03-20T18:31:53.856Z,5.05
2023-03-20T18:34:23.872Z,7.40
2023-03-20T18:36:52.008Z,4.93
2023-03-20T18:39:33.941Z,10.88
2023-03-20T18:42:01.275Z,3.08
2023-03-20T18:44:31.447Z,11.15
2023-03-20T18:46:58.753Z,4.55
2023-03-20T18:49:25.885Z,5.25
2023-03-20T18:52:04.435Z,4.82
2023-03-20T18:54:38.960Z,5.22
2023-03-20T18:57:06.494Z,7.28
2023-03-20T18:59:37.196Z,6.85
2023-03-20T19:02:04.383Z,9.00
2023-03-20T19:04:33.234Z,5.15
2023-03-20T19:07:02.813Z,5.50
2023-03-20T19:09:33.244Z,6.63
2023-03-20T19:12:00.467Z,2.95
2023-03-20T19:14:30.071Z,6.32
2023-03-20T19:16:57.392Z,8.45
2023-03-20T19:19:24.859Z,9.95
2023-03-20T19:21:52.282Z,5.15
2023-03-20T19:24:21.888Z,4.43
2023-03-20T19:26:49.396Z,6.38
2023-03-20T19:29:18.241Z,7.18
2023-03-20T19:31:48.251Z,11.20
2023-03-20T19:34:44.452Z,7.63
2023-03-20T19:37:07.222Z,5.97
2023-03-20T19:39:34.491Z,5.00
2023-03-20T19:42:19.931Z,10.52
2023-03-20T19:44:49.000Z,5.60
2023-03-20T19:47:19.348Z,5.70
2023-03-20T19:49:48.005Z,6.22
2023-03-20T19:52:32.400Z,3.30
2023-03-20T19:55:05.681Z,5.07
2023-03-20T19:57:33.178Z,3.47
2023-03-20T20:01:11.070Z,4.95
2023-03-20T20:03:08.509Z,7.60
2023-03-20T20:05:37.891Z,4.90
2023-03-20T20:08:24.381Z,11.10
2023-03-20T20:10:56.718Z,6.25
2023-03-20T20:14:03.602Z,6.28
2023-03-20T20:16:35.171Z,7.57
2023-03-20T20:19:11.842Z,10.77
2023-03-20T20:24:47.631Z,5.60
2023-03-20T20:27:18.546Z,5.93
2023-03-20T20:30:06.449Z,9.23
2023-03-20T20:32:42.172Z,7.32
2023-03-20T20:35:55.825Z,3.50
2023-03-20T20:41:20.823Z,5.78
2023-03-20T20:44:16.094Z,4.90
2023-03-20T20:46:46.861Z,5.18
2023-03-20T20:49:19.931Z,4.22
2023-03-20T20:51:51.148Z,9.02
2023-03-20T20:54:21.661Z,5.47
2023-03-20T20:56:53.456Z,6.20
2023-03-20T20:59:26.816Z,7.75
2023-03-20T21:01:54.906Z,3.78
2023-03-20T21:04:24.004Z,2.28
2023-03-20T21:07:11.407Z,11.73
2023-03-20T21:09:46.023Z,13.68
2023-03-20T21:12:33.545Z,4.43
2023-03-20T21:15:07.283Z,9.50
2023-03-20T21:17:59.465Z,14.93
2023-03-20T21:20:27.601Z,9.63
2023-03-20T21:23:24.916Z,8.68
2023-03-20T21:26:07.255Z,5.20
2023-03-20T21:28:38.124Z,5.70
2023-03-20T21:31:25.198Z,6.25
2023-03-20T21:33:56.885Z,16.17
2023-03-20T21:36:27.862Z,9.48
2023-03-20T21:39:08.741Z,5.97
2023-03-20T21:41:51.825Z,7.57
2023-03-20T21:44:48.346Z,7.05
2023-03-20T21:48:09.305Z,7.95
2023-03-20T21:50:46.581Z,7.63
2023-03-20T21:54:17.677Z,3.83
2023-03-20T21:56:51.423Z,11.25
2023-03-20T21:59:53.848Z,7.90
2023-03-20T22:02:14.029Z,12.63
2023-03-20T22:08:46.865Z,9.30
2023-03-20T22:11:31.420Z,5.72
2023-03-20T22:20:33.283Z,9.38
2023-03-20T22:32:47.460Z,9.77
2023-03-20T22:35:54.392Z,6.32
2023-03-20T22:44:50.074Z,4.90
2023-03-20T22:47:09.574Z,6.15
2023-03-20T22:49:57.328Z,8.20
2023-03-20T22:52:38.323Z,2.88
2023-03-20T22:55:15.794Z,3.47
2023-03-20T22:58:03.995Z,4.07
2023-03-20T23:00:45.135Z,5.15
2023-03-20T23:03:33.390Z,8.65
2023-03-20T23:06:24.605Z,6.13
2023-03-20T23:08:58.313Z,3.17
2023-03-20T23:11:33.498Z,3.75
2023-03-20T23:14:18.155Z,2.97
2023-03-20T23:16:53.540Z,10.00
2023-03-20T23:19:37.776Z,9.73
2023-03-20T23:22:16.207Z,8.02
2023-03-20T23:24:57.295Z,3.08
2023-03-20T23:27:33.370Z,3.15
2023-03-20T23:32:55.777Z,6.97
2023-03-20T23:36:21.483Z,4.18
2023-03-20T23:39:11.717Z,5.38
2023-03-20T23:44:27.320Z,15.10
2023-03-20T23:47:03.338Z,10.20
2023-03-20T23:49:37.535Z,9.45
2023-03-20T23:52:07.357Z,9.13
2023-03-20T23:54:40.272Z,10.40
2023-03-20T23:57:07.750Z,8.98
2023-03-20T23:59:41.050Z,6.75
